首页
METAR-TAF:

METAR-TAF

机场 :

Naval Station Mayport (Adm. David L. McDonald Field)

Mayport, 佛罗里达州, 美国

纬度: 30-23-45N, 经度: 081-25-21W, 海拔: 5米

当前天气观测

该预报发布于45分钟前的07:52 UTC
风速13节,风向东北
温度 16°C
湿度 68%
气压 1023 hPa
能見度: 16.1公里
天空无云

METAR: KNRB 210752Z AUTO 05013KT 10SM CLR 16/10 A3021 RMK AO2 SLP227 T01560100

时间: 03:37 (08:37 UTC)

预报

预报有效从21日的 07点(UTC)到 22日的 07点(UTC)
风速10节,风向东北
能见度10公里或以上
少量云层高于4000英尺
少量云层高于25000英尺
从 21日的 1500点(UTC)
风速10节,风向北转东北,有时为18节阵风
能见度10公里或以上
散云层高于4000英尺
多云层高于25000英尺
从 21日的 2300点(UTC)
风速6节,风向北转东北
能见度10公里或以上
少量云层高于3000英尺
少量云层高于25000英尺
从 21日的 0300点(UTC)
风速5节,风向
能見度: 2110
少量云层高于3000英尺
少量云层高于25000英尺

TAF: KNRB 2107/2207 04010KT 9999 FEW040 FEW250 QNH3014INS FM211500 02010G18KT 9999 SCT040 BKN250 QNH3015INS FM212300 02006KT 9999 FEW030 FEW250 QNH3013INS FM210300 01005KT 9999 FEW030 FEW250 QNH3012INS AUTOMATED SENSOR METWATCH 2107 TIL 2110 T12/2112Z T21/2119Z FN00221

超过4000个机场的气象观测和天气预报(METAR&TAF报告)。

可查询的气象台以黄色和红色小点在地图上表示。

将鼠标移到小点上方,可查看气象台名称。

然后点击查看天气观测和预报。

如需切换地图:点击带黑十字的绿色按钮放大地图;点击带横线的绿色按钮缩小地图;或者点击绿色箭头查看邻近地区的地图。


METAR-TAF: